createdAt,value
2019-02-11T00:01:18.110Z,98319.27
2019-02-11T00:04:15.771Z,98325.47
2019-02-11T00:06:55.550Z,98334.18
2019-02-11T00:09:30.782Z,98346.48
2019-02-11T00:12:04.526Z,98357.16
2019-02-11T00:14:40.921Z,98365.44
2019-02-11T00:17:19.179Z,98365.44
2019-02-11T00:19:57.635Z,98373.73
2019-02-11T00:22:33.773Z,98366.70
2019-02-11T00:25:07.248Z,98385.59
2019-02-11T00:27:40.824Z,98396.59
2019-02-11T00:30:20.744Z,98407.86
2019-02-11T00:32:54.392Z,98412.94
2019-02-11T00:35:51.959Z,98422.21
2019-02-11T00:38:30.208Z,98429.09
2019-02-11T00:41:05.875Z,98439.37
2019-02-11T00:43:39.801Z,98442.62
2019-02-11T00:46:16.951Z,98453.55
2019-02-11T00:48:58.070Z,98456.85
2019-02-11T00:51:39.650Z,98459.68
2019-02-11T00:54:21.465Z,98466.64
2019-02-11T00:57:09.411Z,98478.25
2019-02-11T00:59:53.397Z,98482.60
2019-02-11T01:02:38.120Z,98491.77
2019-02-11T01:05:13.364Z,98496.98
2019-02-11T01:07:52.680Z,98506.84
2019-02-11T01:10:36.230Z,98507.26
2019-02-11T01:13:27.937Z,98521.38
2019-02-11T01:16:17.285Z,98528.92
2019-02-11T01:18:59.029Z,98536.08
2019-02-11T01:21:38.012Z,98538.77
2019-02-11T01:24:17.084Z,98550.19
2019-02-11T01:26:57.204Z,98551.04
2019-02-11T01:29:32.533Z,98557.77
2019-02-11T01:32:11.980Z,98564.59
2019-02-11T01:34:47.792Z,98572.86
2019-02-11T01:37:25.143Z,98572.66
2019-02-11T01:40:02.929Z,98577.13
2019-02-11T01:42:46.465Z,98589.38
2019-02-11T01:45:26.964Z,98591.64
2019-02-11T01:48:08.197Z,98595.12
2019-02-11T01:50:51.532Z,98601.07
2019-02-11T01:53:30.998Z,98610.12
2019-02-11T01:56:11.346Z,98605.53
2019-02-11T01:58:51.765Z,98619.69
2019-02-11T02:01:33.733Z,98619.85
2019-02-11T02:04:11.511Z,98628.42
2019-02-11T02:06:44.911Z,98622.97
2019-02-11T02:09:18.831Z,98637.30
2019-02-11T02:11:55.392Z,98640.62
2019-02-11T02:14:29.929Z,98648.27
2019-02-11T02:17:03.743Z,98656.12
2019-02-11T02:19:45.492Z,98653.03
2019-02-11T02:22:18.815Z,98659.05
2019-02-11T02:24:57.875Z,98657.14
2019-02-11T02:27:31.675Z,98659.41
2019-02-11T02:30:11.287Z,98665.35
2019-02-11T02:32:44.809Z,98669.10
2019-02-11T02:35:20.901Z,98665.66
2019-02-11T02:37:54.372Z,98672.33
2019-02-11T02:40:27.824Z,98674.92
2019-02-11T02:43:02.569Z,98681.09
2019-02-11T02:45:36.480Z,98686.98
2019-02-11T02:48:10.711Z,98684.94
2019-02-11T02:50:46.635Z,98688.39
2019-02-11T02:53:21.659Z,98696.34
2019-02-11T02:55:56.917Z,98704.91
2019-02-11T02:58:30.512Z,98712.37
2019-02-11T03:01:06.468Z,98711.59
2019-02-11T03:03:44.185Z,98722.42
2019-02-11T03:06:27.858Z,98716.84
2019-02-11T03:09:01.723Z,98721.88
2019-02-11T03:11:36.984Z,98737.12
2019-02-11T03:14:11.461Z,98740.44
2019-02-11T03:16:46.945Z,98742.21
2019-02-11T03:19:21.795Z,98742.84
2019-02-11T03:21:55.746Z,98757.33
2019-02-11T03:24:29.577Z,98757.33
2019-02-11T03:27:03.432Z,98766.59
2019-02-11T03:29:35.966Z,98774.41
2019-02-11T03:32:10.926Z,98775.53
2019-02-11T03:34:46.623Z,98777.11
2019-02-11T03:37:20.129Z,98788.31
2019-02-11T03:39:53.456Z,98788.80
2019-02-11T03:42:31.771Z,98799.95
2019-02-11T03:45:09.866Z,98798.31
2019-02-11T03:47:45.735Z,98801.13
2019-02-11T03:50:21.297Z,98813.97
2019-02-11T03:53:07.750Z,98816.59
2019-02-11T03:55:50.896Z,98823.41
2019-02-11T03:58:36.007Z,98826.46
2019-02-11T04:01:25.846Z,98832.20
2019-02-11T04:04:06.742Z,98842.75
2019-02-11T04:06:47.558Z,98846.16
2019-02-11T04:09:25.694Z,98852.62
2019-02-11T04:12:16.808Z,98865.53
2019-02-11T04:14:59.762Z,98868.27
2019-02-11T04:17:36.907Z,98879.44
2019-02-11T04:20:16.615Z,98878.02
2019-02-11T04:22:56.237Z,98883.52
2019-02-11T04:25:29.359Z,98886.14
2019-02-11T04:31:00.114Z,98899.94
2019-02-11T04:33:36.171Z,98912.62
2019-02-11T04:36:13.615Z,98907.70
2019-02-11T04:38:55.532Z,98919.39
2019-02-11T04:41:31.762Z,98923.87
2019-02-11T04:44:04.966Z,98924.66
2019-02-11T04:46:38.588Z,98934.40
2019-02-11T04:49:10.772Z,98941.30
2019-02-11T04:51:44.143Z,98946.84
2019-02-11T04:54:17.849Z,98957.42
2019-02-11T04:56:50.703Z,98956.70
2019-02-11T04:59:25.977Z,98964.59
2019-02-11T05:01:59.564Z,98964.67
2019-02-11T05:04:33.487Z,98973.58
2019-02-11T05:07:08.844Z,98985.27
2019-02-11T05:09:41.689Z,98984.80
2019-02-11T05:12:14.874Z,98992.16
2019-02-11T05:14:48.743Z,98987.69
2019-02-11T05:17:22.175Z,99001.75
2019-02-11T05:19:54.391Z,99005.98
2019-02-11T05:22:27.692Z,99005.72
2019-02-11T05:25:01.087Z,99011.26
2019-02-11T05:27:35.207Z,99019.11
2019-02-11T05:30:08.601Z,99015.77
2019-02-11T05:32:40.811Z,99012.41
2019-02-11T05:35:13.852Z,99009.30
2019-02-11T05:37:48.322Z,99018.09
2019-02-11T05:40:21.347Z,99018.59
2019-02-11T05:42:54.555Z,99027.59
2019-02-11T05:45:27.953Z,99037.58
2019-02-11T05:48:01.734Z,99033.16
2019-02-11T05:50:36.329Z,99033.86
2019-02-11T05:53:09.361Z,99038.58
2019-02-11T05:55:42.778Z,99034.63
2019-02-11T05:58:17.012Z,99045.31
2019-02-11T06:00:50.645Z,99052.92
2019-02-11T06:03:23.600Z,99052.78
2019-02-11T06:05:56.992Z,99062.97
2019-02-11T06:08:30.077Z,99057.84
2019-02-11T06:11:03.539Z,99071.19
2019-02-11T06:13:37.139Z,99080.73
2019-02-11T06:16:10.419Z,99090.16
2019-02-11T06:18:43.747Z,99087.93
2019-02-11T06:21:16.720Z,99088.61
2019-02-11T06:23:50.530Z,99107.69
2019-02-11T06:26:24.346Z,99109.03
2019-02-11T06:28:59.862Z,99120.27
2019-02-11T06:31:33.387Z,99121.20
2019-02-11T06:34:06.771Z,99119.36
2019-02-11T06:36:40.403Z,99124.11
2019-02-11T06:39:14.218Z,99118.36
2019-02-11T06:41:47.178Z,99123.08
2019-02-11T06:44:20.976Z,99132.97
2019-02-11T06:46:53.612Z,99141.04
2019-02-11T06:49:26.962Z,99140.25
2019-02-11T06:52:00.354Z,99148.77
2019-02-11T06:54:33.684Z,99155.95
2019-02-11T06:57:06.368Z,99169.17
2019-02-11T06:59:39.944Z,99173.22
2019-02-11T07:02:12.246Z,99178.14
2019-02-11T07:04:45.633Z,99181.39
2019-02-11T07:07:19.010Z,99186.57
2019-02-11T07:09:52.921Z,99201.03
2019-02-11T07:12:28.051Z,99203.52
2019-02-11T07:15:04.924Z,99216.30
2019-02-11T07:17:40.796Z,99223.03
2019-02-11T07:20:34.501Z,99229.80
2019-02-11T07:23:11.236Z,99240.92
2019-02-11T07:25:45.144Z,99245.86
2019-02-11T07:28:20.955Z,99249.66
2019-02-11T07:30:54.289Z,99265.70
2019-02-11T07:33:27.973Z,99271.09
2019-02-11T07:36:05.966Z,99282.75
2019-02-11T07:38:48.944Z,99289.03
2019-02-11T07:41:45.963Z,99298.11
2019-02-11T07:44:29.912Z,99315.95
2019-02-11T07:47:12.469Z,99327.41
2019-02-11T07:49:50.045Z,99336.48
2019-02-11T07:52:30.597Z,99342.11
2019-02-11T07:55:09.876Z,99352.53
2019-02-11T07:57:53.862Z,99350.95
2019-02-11T08:00:40.405Z,99346.45
2019-02-11T08:03:15.301Z,99355.67
2019-02-11T08:05:50.140Z,99363.41
2019-02-11T08:08:24.677Z,99362.95
2019-02-11T08:10:58.736Z,99368.02
2019-02-11T08:13:32.919Z,99374.53
2019-02-11T08:16:12.639Z,99375.87
2019-02-11T08:18:54.422Z,99386.19
2019-02-11T08:21:46.788Z,99389.66
2019-02-11T08:24:25.956Z,99394.03
2019-02-11T08:27:12.753Z,99402.36
2019-02-11T08:30:13.450Z,99408.41
2019-02-11T08:33:19.327Z,99412.67
2019-02-11T08:36:02.757Z,99413.35
2019-02-11T08:38:44.195Z,99421.66
2019-02-11T08:41:24.644Z,99432.78
2019-02-11T08:44:15.468Z,99433.58
2019-02-11T08:46:57.577Z,99432.89
2019-02-11T08:49:34.068Z,99440.86
2019-02-11T08:52:14.279Z,99449.27
2019-02-11T08:55:27.226Z,99450.05
2019-02-11T08:58:05.875Z,99446.36
2019-02-11T09:00:42.857Z,99465.33
2019-02-11T09:03:22.436Z,99467.20
2019-02-11T09:06:00.626Z,99477.89
2019-02-11T09:08:43.962Z,99486.29
2019-02-11T09:11:22.556Z,99484.69
2019-02-11T09:14:04.443Z,99482.63
2019-02-11T09:16:52.018Z,99493.18
2019-02-11T09:19:36.014Z,99490.58
2019-02-11T09:22:35.819Z,99501.80
2019-02-11T09:25:14.669Z,99501.97
2019-02-11T09:27:55.784Z,99509.48
2019-02-11T09:30:35.966Z,99511.45
2019-02-11T09:33:17.138Z,99514.36
2019-02-11T09:36:16.565Z,99521.12
2019-02-11T09:38:58.563Z,99522.31
2019-02-11T09:41:37.150Z,99530.98
2019-02-11T09:44:29.478Z,99530.75
2019-02-11T09:47:06.095Z,99537.52
2019-02-11T09:49:42.442Z,99541.09
2019-02-11T09:52:23.604Z,99545.09
2019-02-11T09:55:02.912Z,99540.69
2019-02-11T09:57:43.619Z,99550.26
2019-02-11T10:00:17.466Z,99553.82
2019-02-11T10:02:51.060Z,99558.39
2019-02-11T10:05:24.976Z,99561.66
2019-02-11T10:08:00.646Z,99572.73
2019-02-11T10:10:34.036Z,99572.56
2019-02-11T10:13:07.000Z,99576.28
2019-02-11T10:15:40.381Z,99589.67
2019-02-11T10:18:14.178Z,99594.46
2019-02-11T10:20:47.757Z,99604.48
2019-02-11T10:23:22.100Z,99604.67
2019-02-11T10:25:55.827Z,99622.66
2019-02-11T10:28:29.235Z,99625.00
2019-02-11T10:31:02.843Z,99631.42
2019-02-11T10:33:37.710Z,99640.26
2019-02-11T10:36:11.918Z,99642.84
2019-02-11T10:38:46.418Z,99648.91
2019-02-11T10:41:19.389Z,99650.53
2019-02-11T10:43:52.500Z,99664.70
2019-02-11T10:46:25.920Z,99670.67
2019-02-11T10:48:59.493Z,99671.96
2019-02-11T10:51:32.696Z,99684.12
2019-02-11T10:54:06.235Z,99674.09
2019-02-11T10:56:49.144Z,99672.70
2019-02-11T10:59:27.697Z,99673.42
2019-02-11T11:02:05.015Z,99676.30
2019-02-11T11:04:57.436Z,99673.23
2019-02-11T11:07:50.006Z,99666.95
2019-02-11T11:10:28.517Z,99666.78
2019-02-11T11:13:05.622Z,99670.34
2019-02-11T11:15:38.858Z,99662.64
2019-02-11T11:18:12.351Z,99670.88
2019-02-11T11:20:45.055Z,99688.81
2019-02-11T11:23:18.565Z,99696.16
2019-02-11T11:25:51.902Z,99709.31
2019-02-11T11:28:25.788Z,99718.20
2019-02-11T11:30:59.393Z,99732.16
2019-02-11T11:33:40.619Z,99752.96
2019-02-11T11:36:29.385Z,99770.52
2019-02-11T11:39:28.995Z,99772.06
2019-02-11T11:42:09.051Z,99772.28
2019-02-11T11:44:48.502Z,99773.17
2019-02-11T11:47:28.439Z,99772.69
2019-02-11T11:50:10.380Z,99781.74
2019-02-11T11:53:16.954Z,99789.39
2019-02-11T11:55:55.343Z,99781.07
2019-02-11T11:58:37.835Z,99788.13
2019-02-11T12:01:19.342Z,99783.16
2019-02-11T12:04:06.186Z,99782.46
2019-02-11T12:06:44.181Z,99794.96
2019-02-11T12:09:20.912Z,99798.31
2019-02-11T12:12:05.750Z,99808.08
2019-02-11T12:14:56.078Z,99819.19
2019-02-11T12:17:35.647Z,99831.14
2019-02-11T12:20:10.606Z,99830.14
2019-02-11T12:22:44.184Z,99838.30
2019-02-11T12:25:18.068Z,99859.19
2019-02-11T12:28:16.732Z,99860.73
2019-02-11T12:30:56.547Z,99872.22
2019-02-11T12:33:31.076Z,99875.86
2019-02-11T12:36:11.289Z,99883.20
2019-02-11T12:38:51.630Z,99895.45
2019-02-11T12:41:37.258Z,99905.61
2019-02-11T12:44:19.217Z,99912.58
2019-02-11T12:46:54.230Z,99903.77
2019-02-11T12:49:32.401Z,99907.20
2019-02-11T12:52:12.633Z,99911.56
2019-02-11T12:54:57.713Z,99913.85
2019-02-11T12:57:39.804Z,99906.36
2019-02-11T13:00:22.178Z,99918.38
2019-02-11T13:03:03.941Z,99936.91
2019-02-11T13:05:44.982Z,99931.77
2019-02-11T13:08:14.524Z,99947.81
2019-02-11T13:10:47.990Z,99944.01
2019-02-11T13:13:21.408Z,99951.88
2019-02-11T13:16:01.089Z,99959.31
2019-02-11T13:18:31.235Z,99968.82
2019-02-11T13:21:05.109Z,99968.77
2019-02-11T13:23:38.680Z,99969.77
2019-02-11T13:26:12.992Z,99974.70
2019-02-11T13:28:46.333Z,99973.31
2019-02-11T13:31:20.144Z,99980.48
2019-02-11T13:33:54.370Z,99977.41
2019-02-11T13:36:27.834Z,99991.56
2019-02-11T13:39:04.698Z,99987.17
2019-02-11T13:41:40.311Z,100004.67
2019-02-11T13:44:14.408Z,99995.33
2019-02-11T13:46:47.174Z,100000.32
2019-02-11T13:49:20.546Z,100010.33
2019-02-11T13:51:54.196Z,100013.67
2019-02-11T13:54:27.646Z,100028.02
2019-02-11T13:57:01.575Z,100025.94
2019-02-11T13:59:35.084Z,100038.80
2019-02-11T14:02:08.271Z,100049.00
2019-02-11T14:04:41.735Z,100044.50
2019-02-11T14:07:15.222Z,100057.53
2019-02-11T14:09:48.544Z,100050.17
2019-02-11T14:12:22.324Z,100069.23
2019-02-11T14:15:00.028Z,100075.73
2019-02-11T14:17:34.940Z,100090.44
2019-02-11T14:20:15.637Z,100089.25
2019-02-11T14:22:48.000Z,100098.91
2019-02-11T14:25:40.321Z,100100.86
2019-02-11T14:28:00.956Z,100102.61
2019-02-11T14:30:51.441Z,100104.45
2019-02-11T14:33:47.079Z,100126.52
2019-02-11T14:36:46.116Z,100129.62
2019-02-11T14:39:25.385Z,100128.92
2019-02-11T14:42:09.563Z,100137.56
2019-02-11T14:44:44.619Z,100140.95
2019-02-11T14:47:27.439Z,100152.66
2019-02-11T14:50:01.270Z,100164.34
2019-02-11T14:52:58.853Z,100170.28
2019-02-11T14:55:36.763Z,100174.44
2019-02-11T14:58:11.549Z,100179.50
2019-02-11T15:00:45.396Z,100185.95
2019-02-11T15:03:18.177Z,100192.08
2019-02-11T15:05:51.716Z,100191.72
2019-02-11T15:08:26.139Z,100201.82
2019-02-11T15:10:59.550Z,100202.81
2019-02-11T15:13:32.526Z,100206.25
2019-02-11T15:16:06.258Z,100215.83
2019-02-11T15:18:39.659Z,100212.95
2019-02-11T15:21:13.082Z,100221.23
2019-02-11T15:23:47.824Z,100224.83
2019-02-11T15:26:21.421Z,100221.11
2019-02-11T15:28:54.075Z,100227.61
2019-02-11T15:31:26.808Z,100234.36
2019-02-11T15:34:01.720Z,100244.39
2019-02-11T15:36:34.590Z,100248.56
2019-02-11T15:39:09.386Z,100252.79
2019-02-11T15:41:43.222Z,100267.45
2019-02-11T15:44:17.571Z,100282.23
2019-02-11T15:46:50.931Z,100287.63
2019-02-11T15:49:24.195Z,100292.59
2019-02-11T15:51:58.686Z,100299.95
2019-02-11T15:54:32.758Z,100303.23
2019-02-11T15:57:05.405Z,100313.62
2019-02-11T15:59:40.002Z,100328.64
2019-02-11T16:02:14.710Z,100343.38
2019-02-11T16:04:47.709Z,100343.00
2019-02-11T16:07:22.648Z,100352.13
2019-02-11T16:09:56.220Z,100362.77
2019-02-11T16:12:29.727Z,100362.89
2019-02-11T16:15:03.180Z,100387.05
2019-02-11T16:17:37.986Z,100397.75
2019-02-11T16:20:11.773Z,100401.88
2019-02-11T16:22:45.069Z,100423.72
2019-02-11T16:25:17.649Z,100451.12
2019-02-11T16:27:50.752Z,100443.02
2019-02-11T16:30:23.374Z,100455.73
2019-02-11T16:32:56.930Z,100474.46
2019-02-11T16:35:30.434Z,100459.75
2019-02-11T16:38:06.073Z,100461.66
2019-02-11T16:40:40.890Z,100467.19
2019-02-11T16:45:39.970Z,100473.18
2019-02-11T16:48:13.866Z,100491.84
2019-02-11T16:50:48.023Z,100498.22
2019-02-11T16:53:21.638Z,100510.86
2019-02-11T16:55:56.678Z,100515.67
2019-02-11T16:58:29.973Z,100519.87
2019-02-11T17:01:03.427Z,100527.90
2019-02-11T17:03:38.677Z,100534.07
2019-02-11T17:06:12.478Z,100543.14
2019-02-11T17:08:46.287Z,100551.77
2019-02-11T17:11:20.215Z,100558.87
2019-02-11T17:13:53.686Z,100575.27
2019-02-11T17:16:27.606Z,100579.00
2019-02-11T17:19:08.877Z,100590.08
2019-02-11T17:21:38.287Z,100598.38
2019-02-11T17:24:11.666Z,100613.19
2019-02-11T17:26:44.716Z,100619.06
2019-02-11T17:29:18.477Z,100625.20
2019-02-11T17:31:51.120Z,100636.08
2019-02-11T17:34:24.606Z,100645.10
2019-02-11T17:36:57.994Z,100652.38
2019-02-11T17:39:30.741Z,100653.80
2019-02-11T17:42:03.863Z,100659.95
2019-02-11T17:44:36.964Z,100667.80
2019-02-11T17:47:10.079Z,100661.63
2019-02-11T17:49:43.604Z,100656.29
2019-02-11T17:52:17.268Z,100653.72
2019-02-11T17:54:51.892Z,100659.46
2019-02-11T17:57:25.032Z,100666.95
2019-02-11T17:59:58.972Z,100676.42
2019-02-11T18:02:31.724Z,100679.84
2019-02-11T18:05:04.849Z,100684.80
2019-02-11T18:07:37.969Z,100687.73
2019-02-11T18:10:11.269Z,100681.28
2019-02-11T18:12:43.520Z,100684.52
2019-02-11T18:15:17.115Z,100693.23
2019-02-11T18:17:51.110Z,100698.66
2019-02-11T18:20:24.980Z,100697.13
2019-02-11T18:22:58.228Z,100703.39
2019-02-11T18:25:31.728Z,100701.30
2019-02-11T18:28:06.007Z,100707.77
2019-02-11T18:30:39.307Z,100706.03
2019-02-11T18:33:13.166Z,100705.58
2019-02-11T18:35:46.250Z,100714.05
2019-02-11T18:38:20.348Z,100719.42
2019-02-11T18:40:52.942Z,100721.51
2019-02-11T18:43:26.552Z,100728.00
2019-02-11T18:45:59.648Z,100733.78
2019-02-11T18:48:33.337Z,100734.67
